createdAt,value
2023-06-10T00:01:06.315Z,101674.91
2023-06-10T00:03:09.902Z,101669.84
2023-06-10T00:05:13.180Z,101668.25
2023-06-10T00:07:16.269Z,101673.63
2023-06-10T00:09:19.427Z,101674.56
2023-06-10T00:11:22.888Z,101675.53
2023-06-10T00:13:26.321Z,101675.53
2023-06-10T00:15:29.407Z,101679.09
2023-06-10T00:17:34.196Z,101675.72
2023-06-10T00:19:37.419Z,101677.59
2023-06-10T00:21:41.225Z,101671.69
2023-06-10T00:23:44.817Z,101672.72
2023-06-10T00:25:47.968Z,101669.38
2023-06-10T00:27:51.121Z,101669.59
2023-06-10T00:29:54.348Z,101668.84
2023-06-10T00:31:58.720Z,101668.09
2023-06-10T00:34:03.332Z,101663.78
2023-06-10T00:36:08.924Z,101663.03
2023-06-10T00:38:12.060Z,101664.91
2023-06-10T00:40:15.362Z,101669.44
2023-06-10T00:42:18.560Z,101667.84
2023-06-10T00:44:22.040Z,101672.44
2023-06-10T00:46:27.984Z,101674.34
2023-06-10T00:48:32.950Z,101669.31
2023-06-10T00:50:40.271Z,101672.97
2023-06-10T00:52:45.930Z,101672.22
2023-06-10T00:54:49.240Z,101677.69
2023-06-10T00:56:52.455Z,101677.03
2023-06-10T00:58:55.592Z,101670.16
2023-06-10T01:00:58.876Z,101675.53
2023-06-10T01:03:09.670Z,101676.47
2023-06-10T01:05:13.305Z,101675.72
2023-06-10T01:07:26.074Z,101676.75
2023-06-10T01:09:35.811Z,101680.44
2023-06-10T01:11:46.014Z,101675.41
2023-06-10T01:13:52.267Z,101670.31
2023-06-10T01:15:56.200Z,101672.28
2023-06-10T01:18:00.796Z,101673.31
2023-06-10T01:20:12.900Z,101677.81
2023-06-10T01:22:17.554Z,101680.63
2023-06-10T01:24:21.252Z,101678.19
2023-06-10T01:26:29.358Z,101678.38
2023-06-10T01:28:38.470Z,101690.78
2023-06-10T01:30:50.128Z,101690.06
2023-06-10T01:32:54.806Z,101690.16
2023-06-10T01:34:59.365Z,101691.19
2023-06-10T01:37:03.754Z,101690.44
2023-06-10T01:39:10.853Z,101681.88
2023-06-10T01:41:15.863Z,101686.31
2023-06-10T01:43:19.107Z,101682.91
2023-06-10T01:45:22.844Z,101688.38
2023-06-10T01:47:25.987Z,101687.63
2023-06-10T01:49:29.770Z,101696.44
2023-06-10T01:51:33.372Z,101694.00
2023-06-10T01:53:37.002Z,101696.63
2023-06-10T01:55:41.455Z,101689.69
2023-06-10T01:57:44.578Z,101693.25
2023-06-10T01:59:47.762Z,101686.28
2023-06-10T02:01:51.982Z,101684.59
2023-06-10T02:03:55.299Z,101677.69
2023-06-10T02:05:58.487Z,101679.56
2023-06-10T02:08:01.796Z,101677.84
2023-06-10T02:10:05.502Z,101682.38
2023-06-10T02:12:11.380Z,101674.47
2023-06-10T02:14:14.558Z,101679.75
2023-06-10T02:16:18.155Z,101680.69
2023-06-10T02:18:21.761Z,101685.19
2023-06-10T02:20:24.973Z,101677.28
2023-06-10T02:22:28.083Z,101679.91
2023-06-10T02:24:31.266Z,101673.81
2023-06-10T02:26:34.432Z,101681.78
2023-06-10T02:28:38.956Z,101687.06
2023-06-10T02:30:43.988Z,101685.38
2023-06-10T02:32:49.512Z,101679.25
2023-06-10T02:34:54.586Z,101681.97
2023-06-10T02:36:59.941Z,101685.53
2023-06-10T02:39:03.996Z,101686.47
2023-06-10T02:41:07.205Z,101682.25
2023-06-10T02:43:11.220Z,101697.19
2023-06-10T02:45:16.345Z,101696.44
2023-06-10T02:47:20.639Z,101686.09
2023-06-10T02:49:23.773Z,101689.66
2023-06-10T02:51:27.282Z,101685.47
2023-06-10T02:53:36.017Z,101685.63
2023-06-10T02:55:46.222Z,101687.50
2023-06-10T02:57:52.116Z,101686.84
2023-06-10T02:59:56.527Z,101685.16
2023-06-10T03:02:02.422Z,101687.03
2023-06-10T03:04:08.928Z,101686.25
2023-06-10T03:06:13.636Z,101698.66
2023-06-10T03:08:17.263Z,101691.69
2023-06-10T03:10:21.789Z,101698.84
2023-06-10T03:12:25.086Z,101699.75
2023-06-10T03:14:28.309Z,101690.19
2023-06-10T03:16:32.565Z,101696.38
2023-06-10T03:18:38.229Z,101698.06
2023-06-10T03:20:42.561Z,101697.31
2023-06-10T03:22:47.105Z,101699.94
2023-06-10T03:24:51.431Z,101702.66
2023-06-10T03:26:55.003Z,101704.47
2023-06-10T03:28:58.821Z,101701.84
2023-06-10T03:31:02.243Z,101698.38
2023-06-10T03:33:08.536Z,101705.50
2023-06-10T03:35:13.402Z,101698.47
2023-06-10T03:37:16.761Z,101707.09
2023-06-10T03:39:22.872Z,101705.19
2023-06-10T03:41:26.775Z,101702.56
2023-06-10T03:43:32.338Z,101706.03
2023-06-10T03:45:35.636Z,101702.47
2023-06-10T03:47:41.625Z,101696.19
2023-06-10T03:49:47.951Z,101703.16
2023-06-10T03:51:52.624Z,101707.47
2023-06-10T03:53:55.789Z,101692.53
2023-06-10T03:55:59.537Z,101701.19
2023-06-10T03:58:03.834Z,101696.69
2023-06-10T04:00:12.565Z,101693.13
2023-06-10T04:02:18.940Z,101700.94
2023-06-10T04:04:22.193Z,101700.75
2023-06-10T04:06:26.662Z,101703.28
2023-06-10T04:08:32.498Z,101697.00
2023-06-10T04:10:36.765Z,101695.13
2023-06-10T04:12:40.672Z,101690.50
2023-06-10T04:14:43.749Z,101693.81
2023-06-10T04:16:48.916Z,101697.94
2023-06-10T04:18:52.128Z,101695.88
2023-06-10T04:20:56.653Z,101693.81
2023-06-10T04:23:00.743Z,101697.88
2023-06-10T04:25:05.910Z,101699.34
2023-06-10T04:27:09.179Z,101698.13
2023-06-10T04:29:12.404Z,101696.81
2023-06-10T04:31:15.966Z,101695.69
2023-06-10T04:33:20.382Z,101695.34
2023-06-10T04:35:23.766Z,101689.66
2023-06-10T04:37:26.991Z,101695.47
2023-06-10T04:39:30.339Z,101700.41
2023-06-10T04:41:35.738Z,101695.69
2023-06-10T04:43:39.028Z,101695.28
2023-06-10T04:45:45.951Z,101701.88
2023-06-10T04:47:49.731Z,101702.34
2023-06-10T04:49:53.491Z,101697.53
2023-06-10T04:51:56.610Z,101698.78
2023-06-10T04:54:03.576Z,101697.56
2023-06-10T04:56:06.764Z,101698.03
2023-06-10T04:58:11.300Z,101695.94
2023-06-10T05:00:15.206Z,101695.72
2023-06-10T05:02:18.529Z,101698.16
2023-06-10T05:04:21.724Z,101693.63
2023-06-10T05:06:24.907Z,101693.41
2023-06-10T05:08:28.003Z,101687.00
2023-06-10T05:10:32.733Z,101688.41
2023-06-10T05:12:36.094Z,101699.28
2023-06-10T05:14:40.579Z,101695.19
2023-06-10T05:16:44.438Z,101698.16
2023-06-10T05:18:47.650Z,101702.19
2023-06-10T05:20:51.428Z,101696.34
2023-06-10T05:22:54.822Z,101697.66
2023-06-10T05:24:58.233Z,101694.41
2023-06-10T05:27:01.555Z,101695.69
2023-06-10T05:29:05.212Z,101700.53
2023-06-10T05:31:09.719Z,101700.84
2023-06-10T05:33:12.883Z,101692.50
2023-06-10T05:35:16.333Z,101700.00
2023-06-10T05:37:19.549Z,101702.19
2023-06-10T05:39:22.700Z,101697.34
2023-06-10T05:41:26.607Z,101697.75
2023-06-10T05:43:29.727Z,101691.22
2023-06-10T05:45:32.847Z,101694.44
2023-06-10T05:47:37.485Z,101688.84
2023-06-10T05:49:40.688Z,101687.69
2023-06-10T05:51:43.813Z,101692.63
2023-06-10T05:53:47.589Z,101697.47
2023-06-10T05:55:50.834Z,101692.56
2023-06-10T05:58:01.055Z,101690.44
2023-06-10T06:00:06.638Z,101688.53
2023-06-10T06:02:15.506Z,101689.19
2023-06-10T06:04:20.154Z,101687.03
2023-06-10T06:06:23.305Z,101685.69
2023-06-10T06:08:26.559Z,101684.47
2023-06-10T06:10:29.879Z,101677.06
2023-06-10T06:12:33.065Z,101673.97
2023-06-10T06:14:40.206Z,101682.28
2023-06-10T06:16:43.297Z,101677.38
2023-06-10T06:18:46.440Z,101676.69
2023-06-10T06:20:51.821Z,101673.47
2023-06-10T06:22:54.942Z,101676.25
2023-06-10T06:24:58.309Z,101675.69
2023-06-10T06:27:01.447Z,101675.09
2023-06-10T06:29:04.609Z,101670.31
2023-06-10T06:31:07.788Z,101668.00
2023-06-10T06:33:11.270Z,101672.72
2023-06-10T06:35:14.406Z,101682.72
2023-06-10T06:37:19.008Z,101676.84
2023-06-10T06:39:22.379Z,101678.91
2023-06-10T06:41:26.769Z,101688.19
2023-06-10T06:43:29.905Z,101676.16
2023-06-10T06:45:39.888Z,101671.19
2023-06-10T06:47:43.100Z,101675.91
2023-06-10T06:49:46.436Z,101670.13
2023-06-10T06:51:49.531Z,101676.63
2023-06-10T06:53:57.813Z,101674.41
2023-06-10T06:56:01.392Z,101673.69
2023-06-10T06:58:05.279Z,101681.88
2023-06-10T07:00:10.206Z,101676.09
2023-06-10T07:02:13.375Z,101675.56
2023-06-10T07:04:17.632Z,101677.00
2023-06-10T07:06:20.832Z,101676.50
2023-06-10T07:08:24.004Z,101680.59
2023-06-10T07:10:28.578Z,101682.78
2023-06-10T07:12:31.744Z,101682.50
2023-06-10T07:14:36.580Z,101687.06
2023-06-10T07:16:39.915Z,101686.31
2023-06-10T07:18:44.385Z,101691.91
2023-06-10T07:20:47.466Z,101697.56
2023-06-10T07:22:50.595Z,101694.41
2023-06-10T07:24:55.902Z,101692.81
2023-06-10T07:27:00.365Z,101705.84
2023-06-10T07:29:03.680Z,101697.84
2023-06-10T07:31:06.902Z,101695.94
2023-06-10T07:33:11.530Z,101697.72
2023-06-10T07:35:14.801Z,101703.94
2023-06-10T07:37:17.948Z,101699.47
2023-06-10T07:39:21.097Z,101693.50
2023-06-10T07:41:26.326Z,101700.81
2023-06-10T07:43:30.835Z,101700.97
2023-06-10T07:45:34.029Z,101698.22
2023-06-10T07:47:37.189Z,101690.38
2023-06-10T07:49:40.676Z,101688.03
2023-06-10T07:51:43.874Z,101690.41
2023-06-10T07:53:47.165Z,101685.69
2023-06-10T07:55:50.385Z,101690.44
2023-06-10T07:57:53.583Z,101689.91
2023-06-10T07:59:58.917Z,101681.53
2023-06-10T08:02:02.104Z,101684.03
2023-06-10T08:04:06.191Z,101687.53
2023-06-10T08:06:09.491Z,101684.03
2023-06-10T08:08:12.588Z,101676.78
2023-06-10T08:10:15.668Z,101687.72
2023-06-10T08:12:18.812Z,101684.34
2023-06-10T08:14:22.468Z,101683.50
2023-06-10T08:16:27.215Z,101686.03
2023-06-10T08:18:30.411Z,101687.41
2023-06-10T08:20:36.351Z,101678.44
2023-06-10T08:22:40.577Z,101679.28
2023-06-10T08:24:43.657Z,101676.47
2023-06-10T08:26:46.750Z,101680.66
2023-06-10T08:28:49.931Z,101679.63
2023-06-10T08:30:53.672Z,101687.59
2023-06-10T08:32:59.396Z,101682.38
2023-06-10T08:35:02.513Z,101684.13
2023-06-10T08:37:06.393Z,101688.03
2023-06-10T08:39:09.626Z,101682.53
2023-06-10T08:41:16.446Z,101688.47
2023-06-10T08:43:31.564Z,101690.00
2023-06-10T08:45:37.756Z,101688.94
2023-06-10T08:47:43.876Z,101684.53
2023-06-10T08:49:49.334Z,101690.81
2023-06-10T08:51:52.923Z,101690.03
2023-06-10T08:54:04.012Z,101687.88
2023-06-10T08:56:07.964Z,101686.75
2023-06-10T08:58:11.268Z,101681.94
2023-06-10T09:00:15.938Z,101685.84
2023-06-10T09:02:20.959Z,101687.72
2023-06-10T09:04:26.086Z,101679.25
2023-06-10T09:06:30.752Z,101684.97
2023-06-10T09:08:35.836Z,101675.84
2023-06-10T09:10:39.023Z,101679.19
2023-06-10T09:12:42.181Z,101679.75
2023-06-10T09:14:45.361Z,101677.75
2023-06-10T09:16:49.485Z,101671.44
2023-06-10T09:18:56.054Z,101672.63
2023-06-10T09:20:59.279Z,101679.88
2023-06-10T09:23:04.015Z,101679.25
2023-06-10T09:25:10.169Z,101668.25
2023-06-10T09:27:13.451Z,101677.63
2023-06-10T09:29:16.586Z,101668.97
2023-06-10T09:31:22.836Z,101669.88
2023-06-10T09:33:27.939Z,101668.09
2023-06-10T09:35:32.496Z,101663.91
2023-06-10T09:37:35.678Z,101670.31
2023-06-10T09:39:40.799Z,101663.22
2023-06-10T09:41:44.273Z,101667.56
2023-06-10T09:43:50.074Z,101669.28
2023-06-10T09:45:54.633Z,101668.66
2023-06-10T09:47:57.938Z,101673.53
2023-06-10T09:50:02.849Z,101672.34
2023-06-10T09:52:08.028Z,101667.50
2023-06-10T09:54:11.263Z,101664.66
2023-06-10T09:56:15.772Z,101663.50
2023-06-10T09:58:19.180Z,101660.66
2023-06-10T10:00:24.912Z,101672.41
2023-06-10T10:02:28.391Z,101666.41
2023-06-10T10:04:31.739Z,101661.56
2023-06-10T10:06:40.730Z,101660.03
2023-06-10T10:08:44.575Z,101662.41
2023-06-10T10:10:47.890Z,101665.81
2023-06-10T10:12:57.552Z,101675.84
2023-06-10T10:15:04.824Z,101673.16
2023-06-10T10:17:12.342Z,101671.16
2023-06-10T10:19:21.125Z,101668.81
2023-06-10T10:21:27.194Z,101671.00
2023-06-10T10:23:37.000Z,101660.81
2023-06-10T10:25:42.594Z,101663.47
2023-06-10T10:27:50.104Z,101664.81
2023-06-10T10:29:57.185Z,101671.50
2023-06-10T10:32:03.036Z,101665.81
2023-06-10T10:34:09.616Z,101657.59
2023-06-10T10:36:13.364Z,101659.91
2023-06-10T10:38:17.254Z,101657.88
2023-06-10T10:40:22.790Z,101651.31
2023-06-10T10:42:26.950Z,101652.59
2023-06-10T10:44:30.300Z,101662.44
2023-06-10T10:46:45.265Z,101669.13
2023-06-10T10:48:53.004Z,101665.59
2023-06-10T10:50:58.994Z,101663.88
2023-06-10T10:53:04.160Z,101655.16
2023-06-10T10:55:15.249Z,101663.50
2023-06-10T10:57:20.587Z,101662.94
2023-06-10T10:59:24.458Z,101665.09
2023-06-10T11:01:47.127Z,101656.06
2023-06-10T11:03:51.384Z,101668.97
2023-06-10T11:05:54.832Z,101658.25
2023-06-10T11:07:58.402Z,101654.38
2023-06-10T11:10:03.304Z,101663.91
2023-06-10T11:12:08.607Z,101663.22
2023-06-10T11:14:11.935Z,101667.22
2023-06-10T11:16:22.357Z,101658.16
2023-06-10T11:18:28.498Z,101653.63
2023-06-10T11:20:45.804Z,101660.94
2023-06-10T11:23:01.327Z,101656.38
2023-06-10T11:25:05.127Z,101658.69
2023-06-10T11:27:19.341Z,101655.91
2023-06-10T11:29:22.657Z,101653.63
2023-06-10T11:31:27.337Z,101656.91
2023-06-10T11:33:33.156Z,101656.28
2023-06-10T11:35:36.764Z,101650.66
2023-06-10T11:37:40.144Z,101657.59
2023-06-10T11:39:43.482Z,101652.22
2023-06-10T11:41:47.969Z,101650.88
2023-06-10T11:43:51.096Z,101649.13
2023-06-10T11:45:57.940Z,101650.06
2023-06-10T11:48:02.044Z,101648.03
2023-06-10T11:50:07.681Z,101647.63
2023-06-10T11:52:11.851Z,101643.00
2023-06-10T11:54:15.062Z,101651.91
2023-06-10T11:56:22.346Z,101645.69
2023-06-10T11:58:25.524Z,101640.50
2023-06-10T12:00:28.736Z,101641.50
2023-06-10T12:02:31.932Z,101639.00
2023-06-10T12:04:35.104Z,101638.63
2023-06-10T12:06:44.376Z,101642.06
2023-06-10T12:08:47.576Z,101641.56
2023-06-10T12:10:50.933Z,101643.16
2023-06-10T12:12:54.160Z,101641.56
2023-06-10T12:14:58.915Z,101642.94
2023-06-10T12:17:02.430Z,101639.31
2023-06-10T12:19:07.753Z,101630.56
2023-06-10T12:21:18.943Z,101640.81
2023-06-10T12:23:24.144Z,101640.69
2023-06-10T12:25:28.355Z,101635.56
2023-06-10T12:27:32.705Z,101633.09
2023-06-10T12:29:36.040Z,101629.50
2023-06-10T12:31:54.923Z,101631.88
2023-06-10T12:34:10.040Z,101618.88
2023-06-10T12:36:19.073Z,101620.78
2023-06-10T12:38:28.180Z,101616.06
2023-06-10T12:40:33.477Z,101617.34
2023-06-10T12:42:38.434Z,101609.88
2023-06-10T12:44:42.990Z,101611.81
2023-06-10T12:46:46.150Z,101600.22
2023-06-10T12:48:55.278Z,101607.50
2023-06-10T12:51:01.187Z,101598.00
2023-06-10T12:53:04.353Z,101599.31
2023-06-10T12:55:10.183Z,101610.97
2023-06-10T12:57:13.936Z,101592.31
2023-06-10T12:59:18.903Z,101601.50
2023-06-10T13:01:22.374Z,101601.16
2023-06-10T13:03:25.496Z,101595.06
2023-06-10T13:05:28.864Z,101598.41
2023-06-10T13:07:32.024Z,101600.31
2023-06-10T13:09:35.149Z,101599.13
2023-06-10T13:11:40.177Z,101601.25
2023-06-10T13:13:43.783Z,101589.41
2023-06-10T13:15:46.875Z,101589.78
2023-06-10T13:17:50.977Z,101593.97
2023-06-10T13:19:54.437Z,101590.38
2023-06-10T13:21:57.593Z,101589.94
2023-06-10T13:24:00.712Z,101581.38
2023-06-10T13:26:04.712Z,101581.75
2023-06-10T13:28:09.503Z,101586.31
2023-06-10T13:30:13.539Z,101582.06
2023-06-10T13:32:16.753Z,101584.88
2023-06-10T13:34:19.874Z,101581.06
2023-06-10T13:36:23.094Z,101567.84
2023-06-10T13:38:26.174Z,101567.59
2023-06-10T13:40:29.292Z,101568.09
2023-06-10T13:42:32.578Z,101561.53
2023-06-10T13:44:37.521Z,101562.13
2023-06-10T13:46:40.755Z,101559.41
2023-06-10T13:48:44.004Z,101559.38
2023-06-10T13:50:47.287Z,101568.09
2023-06-10T13:52:50.388Z,101568.50
2023-06-10T13:54:53.475Z,101569.53
2023-06-10T13:56:56.644Z,101565.19
2023-06-10T13:59:01.850Z,101564.72
2023-06-10T14:01:08.320Z,101561.56
2023-06-10T14:03:11.720Z,101554.06
2023-06-10T14:05:15.004Z,101560.31
2023-06-10T14:07:18.322Z,101560.97
2023-06-10T14:09:21.492Z,101566.44
2023-06-10T14:11:24.630Z,101565.72
2023-06-10T14:13:27.786Z,101561.91
2023-06-10T14:15:31.751Z,101566.72
2023-06-10T14:17:36.331Z,101561.69
2023-06-10T14:19:41.260Z,101552.75
2023-06-10T14:21:44.370Z,101570.47
2023-06-10T14:23:54.180Z,101560.09
2023-06-10T14:25:57.512Z,101564.16
2023-06-10T14:28:00.750Z,101567.66
2023-06-10T14:30:05.030Z,101560.75
2023-06-10T14:32:09.810Z,101566.78
2023-06-10T14:34:14.491Z,101564.94
2023-06-10T14:36:17.658Z,101565.81
2023-06-10T14:38:20.822Z,101565.81
2023-06-10T14:40:25.608Z,101572.03
2023-06-10T14:42:28.732Z,101560.97
2023-06-10T14:44:32.386Z,101561.19
2023-06-10T14:46:35.507Z,101566.16
2023-06-10T14:48:38.654Z,101560.78
2023-06-10T14:50:46.223Z,101569.00
2023-06-10T14:52:49.430Z,101566.28
2023-06-10T14:54:52.541Z,101553.66
2023-06-10T14:56:55.646Z,101565.66
2023-06-10T14:58:58.862Z,101573.19
2023-06-10T15:01:02.070Z,101563.44
2023-06-10T15:03:05.597Z,101562.22
2023-06-10T15:05:09.851Z,101569.13
2023-06-10T15:07:16.386Z,101565.34
2023-06-10T15:09:19.464Z,101563.63
2023-06-10T15:11:23.150Z,101556.72
2023-06-10T15:13:26.213Z,101558.53
2023-06-10T15:15:29.411Z,101557.66
2023-06-10T15:17:32.623Z,101559.31
2023-06-10T15:19:36.159Z,101554.78
2023-06-10T15:21:39.271Z,101557.34
2023-06-10T15:23:43.800Z,101558.59
2023-06-10T15:25:47.733Z,101564.84
2023-06-10T15:27:50.862Z,101560.06
2023-06-10T15:29:53.974Z,101568.19
2023-06-10T15:31:57.271Z,101560.31
2023-06-10T15:34:00.929Z,101555.16
2023-06-10T15:36:05.944Z,101557.13
2023-06-10T15:38:09.147Z,101551.69
2023-06-10T15:40:13.899Z,101555.16
2023-06-10T15:42:17.126Z,101553.22
2023-06-10T15:44:20.344Z,101562.84
2023-06-10T15:46:23.604Z,101557.53
2023-06-10T15:48:26.700Z,101553.88
2023-06-10T15:50:29.756Z,101548.28
2023-06-10T15:52:32.895Z,101547.31
2023-06-10T15:54:36.031Z,101547.41
2023-06-10T15:56:41.533Z,101552.03
2023-06-10T15:58:44.641Z,101545.22
2023-06-10T16:00:47.752Z,101550.69
2023-06-10T16:02:51.015Z,101548.03
2023-06-10T16:04:54.205Z,101546.41
2023-06-10T16:06:58.055Z,101546.69
2023-06-10T16:09:01.327Z,101539.81
2023-06-10T16:11:05.142Z,101543.97
2023-06-10T16:13:09.650Z,101547.72
2023-06-10T16:15:13.061Z,101541.50
2023-06-10T16:17:16.215Z,101539.47
2023-06-10T16:19:19.648Z,101542.84
2023-06-10T16:21:22.771Z,101538.25
2023-06-10T16:23:25.844Z,101544.81
2023-06-10T16:25:28.893Z,101543.06
2023-06-10T16:27:31.982Z,101536.66
2023-06-10T16:29:36.517Z,101534.19
2023-06-10T16:31:39.646Z,101546.19
2023-06-10T16:33:42.937Z,101547.53
2023-06-10T16:35:46.158Z,101546.22
2023-06-10T16:37:49.305Z,101542.75
2023-06-10T16:39:53.076Z,101541.88
2023-06-10T16:41:56.191Z,101547.78
2023-06-10T16:44:01.869Z,101551.03
2023-06-10T16:46:08.202Z,101543.16
2023-06-10T16:48:11.452Z,101552.66
2023-06-10T16:50:14.613Z,101548.41
2023-06-10T16:52:17.731Z,101539.56
2023-06-10T16:54:20.813Z,101542.78
2023-06-10T16:56:24.011Z,101541.81
2023-06-10T16:58:27.124Z,101542.75
2023-06-10T17:00:30.289Z,101544.31
2023-06-10T17:02:34.917Z,101547.69
2023-06-10T17:04:38.091Z,101543.03
2023-06-10T17:06:41.342Z,101540.00
2023-06-10T17:08:44.433Z,101546.03
2023-06-10T17:10:47.532Z,101541.38
2023-06-10T17:12:50.610Z,101550.16
2023-06-10T17:14:53.807Z,101540.44
2023-06-10T17:16:57.197Z,101540.38
2023-06-10T17:19:01.735Z,101546.81
2023-06-10T17:21:05.357Z,101546.28
2023-06-10T17:23:08.875Z,101549.97
2023-06-10T17:25:12.435Z,101550.03
2023-06-10T17:27:15.757Z,101550.44
2023-06-10T17:29:18.860Z,101555.94
2023-06-10T17:31:22.004Z,101552.97
2023-06-10T17:33:25.145Z,101554.56
2023-06-10T17:35:29.686Z,101555.50
2023-06-10T17:37:32.878Z,101551.03
2023-06-10T17:39:36.264Z,101556.97
2023-06-10T17:41:39.428Z,101551.25
2023-06-10T17:43:45.280Z,101555.00
2023-06-10T17:45:49.597Z,101559.53
2023-06-10T17:47:52.863Z,101564.72
2023-06-10T17:49:56.129Z,101562.06
2023-06-10T17:52:00.706Z,101562.75
2023-06-10T17:54:04.178Z,101570.44
2023-06-10T17:56:07.351Z,101570.78
2023-06-10T17:58:10.912Z,101573.97
2023-06-10T18:00:15.119Z,101569.09
2023-06-10T18:02:18.353Z,101581.00
2023-06-10T18:04:21.766Z,101570.47
2023-06-10T18:06:24.930Z,101581.50
2023-06-10T18:08:29.408Z,101581.84
2023-06-10T18:10:32.569Z,101577.97
2023-06-10T18:12:35.726Z,101585.81
2023-06-10T18:14:38.875Z,101581.81
2023-06-10T18:16:42.152Z,101582.97
2023-06-10T18:18:45.694Z,101587.81
2023-06-10T18:20:48.881Z,101586.81
2023-06-10T18:22:51.982Z,101591.13
2023-06-10T18:24:56.596Z,101590.97
2023-06-10T18:26:59.801Z,101580.75
2023-06-10T18:29:02.970Z,101590.28
2023-06-10T18:31:06.377Z,101587.56
2023-06-10T18:33:09.538Z,101575.38
2023-06-10T18:35:13.065Z,101586.97
2023-06-10T18:37:17.973Z,101591.97
2023-06-10T18:39:21.140Z,101586.63
2023-06-10T18:41:25.942Z,101589.91
2023-06-10T18:43:29.173Z,101602.09
2023-06-10T18:45:32.329Z,101602.88
2023-06-10T18:47:44.855Z,101601.16
2023-06-10T18:49:58.582Z,101606.63
2023-06-10T18:52:01.666Z,101604.56
2023-06-10T18:54:04.957Z,101606.38
2023-06-10T18:56:08.133Z,101603.47
2023-06-10T18:58:12.647Z,101604.22
2023-06-10T19:00:16.871Z,101607.19
2023-06-10T19:02:20.296Z,101606.50
2023-06-10T19:04:23.450Z,101606.66
2023-06-10T19:06:26.629Z,101609.97
2023-06-10T19:08:29.975Z,101612.44
2023-06-10T19:10:33.164Z,101613.19
2023-06-10T19:12:36.415Z,101620.13
2023-06-10T19:14:42.363Z,101618.94
2023-06-10T19:16:45.538Z,101629.50
2023-06-10T19:18:48.784Z,101632.25
2023-06-10T19:20:52.041Z,101639.50
2023-06-10T19:22:56.613Z,101636.84
2023-06-10T19:25:03.874Z,101631.41
2023-06-10T19:27:07.897Z,101628.81
2023-06-10T19:29:11.160Z,101639.22
2023-06-10T19:31:15.757Z,101643.47
2023-06-10T19:33:19.191Z,101639.88
2023-06-10T19:35:22.546Z,101655.63
2023-06-10T19:37:26.071Z,101657.88
2023-06-10T19:39:29.286Z,101663.78
2023-06-10T19:41:32.506Z,101667.72
2023-06-10T19:43:35.707Z,101664.81
2023-06-10T19:45:38.883Z,101668.03
2023-06-10T19:47:43.690Z,101678.41
2023-06-10T19:49:46.814Z,101678.97
2023-06-10T19:51:50.843Z,101683.06
2023-06-10T19:53:54.097Z,101680.97
2023-06-10T19:55:57.266Z,101682.38
2023-06-10T19:58:00.530Z,101695.25
2023-06-10T20:00:04.446Z,101690.34
2023-06-10T20:02:16.305Z,101696.13
2023-06-10T20:04:20.964Z,101691.06
2023-06-10T20:06:24.247Z,101696.69
2023-06-10T20:08:27.535Z,101689.94
2023-06-10T20:10:31.163Z,101699.19
2023-06-10T20:12:34.309Z,101692.47
2023-06-10T20:14:37.480Z,101699.75
2023-06-10T20:16:40.692Z,101706.34
2023-06-10T20:18:43.889Z,101709.28
2023-06-10T20:20:48.946Z,101720.19
2023-06-10T20:22:52.104Z,101724.09
2023-06-10T20:24:55.378Z,101731.38
2023-06-10T20:26:58.658Z,101724.63
2023-06-10T20:29:02.444Z,101733.88
2023-06-10T20:31:05.726Z,101738.59
2023-06-10T20:33:09.290Z,101731.03
2023-06-10T20:35:13.343Z,101737.47
2023-06-10T20:37:18.073Z,101740.53
2023-06-10T20:39:21.257Z,101746.13
2023-06-10T20:41:24.404Z,101746.38
2023-06-10T20:43:27.803Z,101736.84
2023-06-10T20:45:30.927Z,101736.16
2023-06-10T20:47:34.053Z,101746.06
2023-06-10T20:49:37.186Z,101749.72
2023-06-10T20:51:40.349Z,101741.91
2023-06-10T20:53:44.853Z,101748.88
2023-06-10T20:55:47.962Z,101743.72
2023-06-10T20:57:51.234Z,101742.88
2023-06-10T20:59:54.419Z,101747.22
2023-06-10T21:01:57.570Z,101748.88
2023-06-10T21:04:01.130Z,101738.22
2023-06-10T21:06:04.420Z,101741.59
2023-06-10T21:08:08.640Z,101744.25
2023-06-10T21:10:13.437Z,101737.97
2023-06-10T21:12:16.678Z,101740.63
2023-06-10T21:14:19.926Z,101740.75
2023-06-10T21:16:23.120Z,101746.06
2023-06-10T21:18:26.322Z,101743.56
2023-06-10T21:20:29.681Z,101744.56
2023-06-10T21:22:33.213Z,101750.84
2023-06-10T21:24:36.571Z,101755.31
2023-06-10T21:26:41.741Z,101748.44
2023-06-10T21:28:45.488Z,101742.44
2023-06-10T21:30:48.640Z,101748.84
2023-06-10T21:32:51.861Z,101749.97
2023-06-10T21:34:55.119Z,101752.88
2023-06-10T21:36:58.252Z,101751.47
2023-06-10T21:39:01.498Z,101753.41
2023-06-10T21:41:04.725Z,101758.13
2023-06-10T21:43:09.204Z,101764.59
2023-06-10T21:45:12.964Z,101762.19
2023-06-10T21:47:17.072Z,101759.78
2023-06-10T21:49:20.421Z,101759.09
2023-06-10T21:51:23.639Z,101769.13
2023-06-10T21:53:27.370Z,101767.69
2023-06-10T21:55:30.659Z,101760.13
2023-06-10T21:57:34.441Z,101765.97
2023-06-10T21:59:39.719Z,101768.19
2023-06-10T22:01:42.919Z,101768.56
2023-06-10T22:03:47.313Z,101768.91
2023-06-10T22:05:50.545Z,101771.13
2023-06-10T22:07:53.810Z,101770.81
2023-06-10T22:09:57.130Z,101766.84
2023-06-10T22:12:00.578Z,101769.03
2023-06-10T22:14:03.727Z,101771.25
2023-06-10T22:16:08.616Z,101774.28
2023-06-10T22:18:12.794Z,101771.19
2023-06-10T22:20:16.236Z,101773.38
2023-06-10T22:22:19.461Z,101781.69
2023-06-10T22:24:22.678Z,101769.66
2023-06-10T22:26:36.825Z,101764.84
2023-06-10T22:28:47.076Z,101772.34
2023-06-10T22:30:50.371Z,101774.53
2023-06-10T22:32:54.909Z,101775.75
2023-06-10T22:34:58.046Z,101785.88
2023-06-10T22:37:01.267Z,101779.16
2023-06-10T22:39:04.528Z,101784.94
2023-06-10T22:41:07.738Z,101787.97
2023-06-10T22:43:10.853Z,101778.69
2023-06-10T22:45:14.131Z,101782.53
2023-06-10T22:47:17.431Z,101792.66
2023-06-10T22:49:22.028Z,101789.53
2023-06-10T22:51:25.341Z,101791.00
2023-06-10T22:53:28.465Z,101787.97
2023-06-10T22:55:31.710Z,101789.31
2023-06-10T22:57:34.987Z,101788.81
2023-06-10T22:59:38.103Z,101787.38
2023-06-10T23:01:41.295Z,101787.88
2023-06-10T23:03:44.481Z,101777.75
2023-06-10T23:05:48.961Z,101786.03
2023-06-10T23:07:52.128Z,101782.91
2023-06-10T23:09:56.154Z,101783.41
2023-06-10T23:11:59.246Z,101779.41
2023-06-10T23:14:02.433Z,101783.25
2023-06-10T23:16:05.671Z,101778.44
2023-06-10T23:18:10.088Z,101782.25
2023-06-10T23:20:16.548Z,101779.13
2023-06-10T23:22:21.096Z,101780.41
2023-06-10T23:24:28.258Z,101778.13
2023-06-10T23:26:33.042Z,101778.56
2023-06-10T23:28:36.185Z,101782.41
2023-06-10T23:30:39.393Z,101784.56
2023-06-10T23:32:42.612Z,101783.13
2023-06-10T23:34:45.767Z,101783.34
2023-06-10T23:36:49.022Z,101787.19
2023-06-10T23:38:53.503Z,101785.72